Time;durP1;ratioP1;P1;durP2;ratioP2;P2;SDS_P1;SDS_P2;PMS_P1;PMS_P2;Temp;Humidity;BMP_temperature;BMP_pressure;BME280_temperature;BME280_humidity;BME280_pressure;Samples;Min_cycle;Max_cycle;Signal;HPM_P1;HPM_P2
2023/01/27 00:00:20;;;;;;;79.35;22.80;;;;;;;0.49;100.00;99763.63;5046591;28;20410;-58
2023/01/27 00:02:46;;;;;;;80.30;21.63;;;;;;;0.49;100.00;99766.28;5032773;28;20518;-58
2023/01/27 00:05:12;;;;;;;89.22;23.90;;;;;;;0.52;100.00;99765.94;5041548;28;20456;-58
2023/01/27 00:07:37;;;;;;;83.97;22.02;;;;;;;0.45;100.00;99760.53;5050027;28;20067;-58
2023/01/27 00:10:04;;;;;;;90.18;24.67;;;;;;;0.44;100.00;99764.13;5046727;28;20487;-58
2023/01/27 00:15:13;;;;;;;78.63;23.65;;;;;;;0.48;100.00;99764.63;5037170;28;20112;-59
2023/01/27 00:17:39;;;;;;;86.97;24.95;;;;;;;0.48;100.00;99754.91;5048673;28;20029;-58
2023/01/27 00:20:05;;;;;;;84.75;24.38;;;;;;;0.48;100.00;99760.19;5048625;28;20079;-59
2023/01/27 00:25:14;;;;;;;80.93;24.67;;;;;;;0.59;100.00;99757.19;5042271;28;20130;-58
2023/01/27 00:27:40;;;;;;;98.72;24.20;;;;;;;0.59;100.00;99762.47;5044918;28;20683;-58
2023/01/27 00:30:06;;;;;;;93.78;24.60;;;;;;;0.61;100.00;99757.06;5038706;28;20428;-58
2023/01/27 00:35:16;;;;;;;103.50;23.90;;;;;;;0.61;100.00;99752.59;5053287;28;20040;-58
2023/01/27 00:37:44;;;;;;;94.78;24.35;;;;;;;0.60;100.00;99758.88;5050539;28;20214;-59
2023/01/27 00:40:13;;;;;;;76.18;21.38;;;;;;;0.71;100.00;99754.25;5040520;28;20113;-58
2023/01/27 00:42:39;;;;;;;108.10;26.08;;;;;;;0.67;100.00;99753.72;5035901;28;20454;-58
2023/01/27 00:47:49;;;;;;;103.70;24.88;;;;;;;0.61;100.00;99759.69;5036775;28;20075;-58
2023/01/27 00:50:15;;;;;;;75.70;23.58;;;;;;;0.70;100.00;99760.50;5037039;28;20515;-58
2023/01/27 00:52:41;;;;;;;90.88;22.48;;;;;;;0.62;100.00;99754.25;5041988;28;20055;-58
2023/01/27 00:55:07;;;;;;;76.95;22.50;;;;;;;0.65;100.00;99750.47;5024955;28;20056;-58
2023/01/27 00:57:33;;;;;;;86.78;24.27;;;;;;;0.55;100.00;99755.06;5040729;28;20568;-58
2023/01/27 00:59:58;;;;;;;87.90;22.98;;;;;;;0.59;100.00;99759.03;5050415;28;20139;-61
2023/01/27 01:02:24;;;;;;;83.63;23.48;;;;;;;0.56;100.00;99757.53;5037770;28;20489;-58
2023/01/27 01:04:49;;;;;;;80.68;23.27;;;;;;;0.58;100.00;99760.84;5040162;28;20166;-58
2023/01/27 01:07:15;;;;;;;70.78;19.80;;;;;;;0.65;100.00;99761.03;5046247;28;20033;-59
2023/01/27 01:09:40;;;;;;;82.07;22.60;;;;;;;0.57;100.00;99753.91;5037956;28;20043;-58
2023/01/27 01:12:05;;;;;;;76.88;24.83;;;;;;;0.55;100.00;99761.19;5042099;28;20048;-58
2023/01/27 01:14:31;;;;;;;56.60;18.20;;;;;;;0.59;100.00;99759.03;5046225;28;20021;-58
2023/01/27 01:16:56;;;;;;;64.18;20.02;;;;;;;0.60;100.00;99761.50;5042775;28;20423;-59
2023/01/27 01:19:23;;;;;;;81.07;23.80;;;;;;;0.61;100.00;99763.16;5043812;28;20437;-58
2023/01/27 01:21:48;;;;;;;68.57;20.25;;;;;;;0.67;100.00;99766.13;5047189;28;20040;-58
2023/01/27 01:24:13;;;;;;;78.20;23.27;;;;;;;0.57;100.00;99761.81;5041349;28;20442;-58
2023/01/27 01:26:39;;;;;;;71.95;22.38;;;;;;;0.58;100.00;99771.41;5035271;28;20099;-58
2023/01/27 01:29:04;;;;;;;77.32;22.65;;;;;;;0.58;100.00;99765.31;5041809;28;20033;-59
2023/01/27 01:31:30;;;;;;;72.20;22.70;;;;;;;0.69;100.00;99767.59;5042262;28;20047;-58
2023/01/27 01:33:55;;;;;;;70.97;20.45;;;;;;;0.61;100.00;99780.78;5043138;28;20021;-58
2023/01/27 01:36:21;;;;;;;74.32;21.73;;;;;;;0.52;100.00;99779.13;5047539;28;20028;-58
2023/01/27 01:38:46;;;;;;;65.38;20.58;;;;;;;0.58;100.00;99784.59;5051457;28;20477;-58
2023/01/27 01:41:17;;;;;;;63.25;20.20;;;;;;;0.61;100.00;99780.78;5048648;28;20550;-58
2023/01/27 01:43:42;;;;;;;64.63;20.88;;;;;;;0.61;100.00;99781.59;5041697;28;20033;-58
2023/01/27 01:46:09;;;;;;;80.88;23.08;;;;;;;0.57;100.00;99780.28;5043911;28;20488;-58
2023/01/27 01:48:51;;;;;;;68.90;19.20;;;;;;;0.57;100.00;99780.28;5042383;28;20122;-58
2023/01/27 01:51:43;;;;;;;69.40;20.67;;;;;;;0.55;100.00;99774.38;5045487;28;20407;-58
2023/01/27 01:54:12;;;;;;;73.22;21.38;;;;;;;0.65;100.00;99787.41;5030079;28;20057;-58
2023/01/27 01:56:52;;;;;;;74.05;22.35;;;;;;;0.59;100.00;99782.75;5042027;28;20459;-58
2023/01/27 01:59:26;;;;;;;72.80;22.20;;;;;;;0.55;100.00;99777.00;5026988;28;20044;-58
2023/01/27 02:01:51;;;;;;;62.55;20.13;;;;;;;0.55;100.00;99774.38;5037387;28;20028;-58
2023/01/27 02:04:18;;;;;;;61.13;21.00;;;;;;;0.56;100.00;99776.00;5035192;28;20025;-59
2023/01/27 02:06:51;;;;;;;67.03;22.25;;;;;;;0.55;100.00;99777.00;5039202;28;20017;-58
2023/01/27 02:09:17;;;;;;;58.42;19.83;;;;;;;0.65;100.00;99771.56;5026332;28;20509;-58
2023/01/27 02:11:43;;;;;;;74.13;20.98;;;;;;;0.55;100.00;99773.53;5047727;28;20024;-58
2023/01/27 02:14:10;;;;;;;62.40;18.60;;;;;;;0.58;100.00;99776.66;5030648;28;20032;-58
2023/01/27 02:16:35;;;;;;;80.60;25.25;;;;;;;0.55;100.00;99763.81;5033401;28;20322;-58
2023/01/27 02:19:01;;;;;;;73.32;24.17;;;;;;;0.62;100.00;99767.44;5028959;28;20063;-58
2023/01/27 02:21:26;;;;;;;66.82;22.17;;;;;;;0.54;100.00;99770.06;5027044;28;20271;-58
2023/01/27 02:23:59;;;;;;;66.10;23.13;;;;;;;0.47;100.00;99768.25;5030053;28;20272;-58
2023/01/27 02:26:35;;;;;;;63.17;20.60;;;;;;;0.55;100.00;99771.72;5035441;28;20107;-59
2023/01/27 02:29:05;;;;;;;75.63;22.08;;;;;;;0.49;100.00;99776.81;5042926;28;20068;-59
2023/01/27 02:31:31;;;;;;;75.97;21.77;;;;;;;0.58;100.00;99774.03;5054780;28;20068;-59
2023/01/27 02:33:58;;;;;;;72.97;24.58;;;;;;;0.53;100.00;99784.25;5032417;28;20495;-59
2023/01/27 02:36:24;;;;;;;81.10;25.98;;;;;;;0.66;100.00;99778.47;5040263;28;20024;-59
2023/01/27 02:38:50;;;;;;;80.05;24.08;;;;;;;0.55;100.00;99782.28;5057251;28;20479;-59
2023/01/27 02:41:30;;;;;;;83.45;25.65;;;;;;;0.59;100.00;99778.31;5037407;28;20392;-59
2023/01/27 02:43:55;;;;;;;80.03;24.85;;;;;;;0.55;100.00;99778.78;5042983;28;20045;-59
2023/01/27 02:46:21;;;;;;;92.05;26.55;;;;;;;0.58;100.00;99775.84;5042898;28;20215;-59
2023/01/27 02:48:46;;;;;;;90.45;26.38;;;;;;;0.60;100.00;99774.69;5041456;28;20563;-59
2023/01/27 02:51:12;;;;;;;95.53;27.40;;;;;;;0.53;100.00;99772.88;5041226;28;20071;-59
2023/01/27 02:53:37;;;;;;;88.07;27.50;;;;;;;0.56;100.00;99775.19;5039606;28;20025;-59
2023/01/27 02:56:03;;;;;;;110.63;30.58;;;;;;;0.57;100.00;99774.19;5036679;28;20071;-59
2023/01/27 02:58:29;;;;;;;95.63;28.58;;;;;;;0.57;100.00;99779.47;5044414;28;20159;-59
2023/01/27 03:00:54;;;;;;;108.28;31.08;;;;;;;0.52;100.00;99782.59;5039907;28;20463;-59
2023/01/27 03:03:20;;;;;;;95.28;27.90;;;;;;;0.49;100.00;99776.81;5048655;28;20055;-59
2023/01/27 03:05:45;;;;;;;100.95;28.77;;;;;;;0.59;100.00;99777.50;5036403;28;20021;-59
2023/01/27 03:08:10;;;;;;;92.88;27.73;;;;;;;0.55;100.00;99779.66;5048444;28;20455;-59
2023/01/27 03:10:36;;;;;;;75.10;23.90;;;;;;;0.52;100.00;99773.84;5040136;28;20024;-59
2023/01/27 03:13:01;;;;;;;68.45;24.17;;;;;;;0.63;100.00;99776.19;5035366;28;20521;-59
2023/01/27 03:18:16;;;;;;;83.97;26.10;;;;;;;0.51;100.00;99783.59;5036255;28;20486;-59
2023/01/27 03:20:44;;;;;;;95.35;27.45;;;;;;;0.52;100.00;99782.59;5036474;28;20114;-59
2023/01/27 03:23:09;;;;;;;95.00;26.55;;;;;;;0.49;100.00;99793.47;5034596;28;20037;-59
2023/01/27 03:25:35;;;;;;;86.00;27.17;;;;;;;0.50;100.00;99789.88;5038922;28;20497;-59
2023/01/27 03:28:00;;;;;;;80.75;26.45;;;;;;;0.56;100.00;99791.84;5036530;28;20472;-59
2023/01/27 03:30:27;;;;;;;109.03;27.50;;;;;;;0.54;100.00;99793.81;5039608;28;20126;-59
2023/01/27 03:32:52;;;;;;;87.03;26.85;;;;;;;0.51;100.00;99795.97;5066142;28;20025;-59
2023/01/27 03:35:18;;;;;;;88.05;24.67;;;;;;;0.58;100.00;99787.22;5043020;28;20069;-59
2023/01/27 03:48:39;;;;;;;59.88;22.70;;;;;;;0.57;100.00;99797.94;5038378;28;20171;-59
2023/01/27 03:51:06;;;;;;;70.90;23.38;;;;;;;0.54;100.00;99798.25;5043923;28;20029;-59
2023/01/27 03:53:32;;;;;;;48.63;16.13;;;;;;;0.57;100.00;99795.28;5042577;28;20024;-59
2023/01/27 03:55:57;;;;;;;77.80;24.27;;;;;;;0.56;100.00;99798.94;5038693;28;20436;-59
2023/01/27 03:58:28;;;;;;;67.13;24.55;;;;;;;0.52;100.00;99797.59;5041782;28;20028;-59
2023/01/27 04:00:54;;;;;;;;;;;;;;;0.51;100.00;99799.41;5048783;28;20034;-59
2023/01/27 04:08:56;;;;;;;58.22;20.02;;;;;;;0.47;100.00;99811.25;5041482;28;20044;-59
2023/01/27 04:14:06;;;;;;;55.25;17.58;;;;;;;0.54;100.00;99811.44;5040563;28;20043;-59
2023/01/27 04:16:31;;;;;;;55.85;19.75;;;;;;;0.58;100.00;99808.31;5033546;28;20021;-59
2023/01/27 04:18:57;;;;;;;52.78;19.67;;;;;;;0.44;100.00;99798.41;5045697;28;20080;-59
2023/01/27 04:21:26;;;;;;;58.20;21.38;;;;;;;0.45;100.00;99805.34;5047833;28;20036;-59
2023/01/27 04:23:51;;;;;;;47.20;18.02;;;;;;;0.52;100.00;99803.69;5048050;28;20025;-59
2023/01/27 04:26:17;;;;;;;59.38;19.90;;;;;;;0.52;100.00;99808.97;5048173;28;20181;-59
2023/01/27 04:28:43;;;;;;;49.50;18.77;;;;;;;0.55;100.00;99800.75;5041769;28;20474;-59
2023/01/27 04:31:08;;;;;;;56.38;20.65;;;;;;;0.54;100.00;99803.53;5048461;28;20041;-59
2023/01/27 04:33:34;;;;;;;65.68;24.23;;;;;;;0.51;100.00;99801.22;5041486;28;20067;-59
2023/01/27 04:35:59;;;;;;;56.30;19.90;;;;;;;0.49;100.00;99808.47;5046199;28;20033;-59
2023/01/27 04:38:24;;;;;;;76.20;32.92;;;;;;;0.39;100.00;99808.63;5040953;28;20481;-59
2023/01/27 04:40:51;;;;;;;63.60;22.02;;;;;;;0.49;100.00;99811.94;5039943;28;20580;-59
2023/01/27 04:43:16;;;;;;;56.65;20.40;;;;;;;0.42;100.00;99808.28;5043761;28;20116;-60
2023/01/27 04:45:42;;;;;;;57.10;21.27;;;;;;;0.38;100.00;99812.25;5035683;28;20026;-58
2023/01/27 04:48:07;;;;;;;56.03;21.02;;;;;;;0.41;100.00;99817.19;5045356;28;20431;-59
2023/01/27 04:50:33;;;;;;;58.53;21.77;;;;;;;0.44;100.00;99816.88;5047120;28;20428;-59
2023/01/27 04:52:58;;;;;;;55.10;20.27;;;;;;;0.37;100.00;99816.69;5034760;28;20025;-59
2023/01/27 04:55:23;;;;;;;51.35;19.13;;;;;;;0.41;100.00;99814.56;5042460;28;20036;-59
2023/01/27 04:57:49;;;;;;;61.63;22.58;;;;;;;0.47;100.00;99816.53;5044687;28;20167;-59
2023/01/27 05:00:15;;;;;;;53.85;20.52;;;;;;;0.47;100.00;99815.72;5046967;28;20256;-59
2023/01/27 05:02:40;;;;;;;59.50;22.42;;;;;;;0.39;100.00;99820.00;5046668;28;20029;-59
2023/01/27 05:05:06;;;;;;;65.80;19.95;;;;;;;0.40;100.00;99815.53;5040062;28;20025;-59
2023/01/27 05:07:31;;;;;;;54.22;21.30;;;;;;;0.42;100.00;99818.84;5043682;28;20075;-59
2023/01/27 05:09:57;;;;;;;51.13;19.20;;;;;;;0.39;100.00;99824.44;5041409;28;20025;-59
2023/01/27 05:12:22;;;;;;;48.63;18.50;;;;;;;0.37;100.00;99835.16;5045487;28;20420;-58
2023/01/27 05:14:48;;;;;;;54.83;20.20;;;;;;;0.40;100.00;99824.31;5042429;28;20391;-57
2023/01/27 05:17:13;;;;;;;53.10;18.38;;;;;;;0.34;100.00;99830.19;5045553;28;20076;-58
2023/01/27 05:19:38;;;;;;;48.45;19.10;;;;;;;0.34;100.00;99832.03;5065638;28;20483;-58
2023/01/27 05:22:04;;;;;;;47.88;17.58;;;;;;;0.30;100.00;99835.97;5040986;28;20033;-60
2023/01/27 05:24:29;;;;;;;54.67;21.08;;;;;;;0.28;100.00;99832.69;5041335;28;20033;-60
2023/01/27 05:26:55;;;;;;;55.05;20.23;;;;;;;0.36;100.00;99837.97;5042651;28;20099;-60
2023/01/27 05:29:20;;;;;;;64.53;19.65;;;;;;;0.34;100.00;99838.13;5043004;28;20494;-60
2023/01/27 05:31:46;;;;;;;51.28;18.60;;;;;;;0.35;100.00;99846.84;5038526;28;20115;-60
2023/01/27 05:34:15;;;;;;;51.53;19.75;;;;;;;0.36;100.00;99841.41;5052417;28;20136;-60
2023/01/27 05:36:43;;;;;;;52.10;20.40;;;;;;;0.33;100.00;99846.22;5044327;28;20075;-60
2023/01/27 05:39:09;;;;;;;59.58;21.85;;;;;;;0.39;100.00;99846.38;5043970;28;20068;-60
2023/01/27 05:41:35;;;;;;;61.78;22.05;;;;;;;0.32;100.00;99849.81;5047257;28;20068;-60
2023/01/27 05:44:00;;;;;;;58.75;20.55;;;;;;;0.33;100.00;99846.22;5040185;28;20021;-60
2023/01/27 05:46:28;;;;;;;55.88;20.80;;;;;;;0.29;100.00;99847.50;5043001;28;21171;-60
2023/01/27 05:48:54;;;;;;;67.65;23.50;;;;;;;0.32;100.00;99861.19;5042789;28;20032;-60
2023/01/27 05:51:21;;;;;;;52.10;19.10;;;;;;;0.38;100.00;99868.47;5041156;28;20522;-60
2023/01/27 05:53:46;;;;;;;55.42;19.38;;;;;;;0.38;100.00;99862.38;5058509;28;20032;-60
2023/01/27 05:56:14;;;;;;;41.25;15.93;;;;;;;0.48;100.00;99872.78;5038966;28;20476;-60
2023/01/27 05:58:39;;;;;;;43.92;17.92;;;;;;;0.41;100.00;99862.84;5037939;28;20116;-60
2023/01/27 06:01:09;;;;;;;57.40;19.02;;;;;;;0.33;100.00;99867.31;5036089;28;20108;-59
2023/01/27 06:03:35;;;;;;;42.95;16.08;;;;;;;0.41;100.00;99875.22;5052794;28;20061;-59
2023/01/27 06:06:00;;;;;;;50.50;16.83;;;;;;;0.33;100.00;99867.31;5038515;28;20028;-59
2023/01/27 06:08:25;;;;;;;45.50;17.02;;;;;;;0.35;100.00;99870.56;5035177;28;20068;-61
2023/01/27 06:10:51;;;;;;;51.00;18.38;;;;;;;0.34;100.00;99875.03;5040251;28;20029;-60
2023/01/27 06:13:17;;;;;;;58.88;19.55;;;;;;;0.34;100.00;99874.22;5044629;28;20152;-59
2023/01/27 06:15:43;;;;;;;44.53;17.95;;;;;;;0.33;100.00;99878.66;5040920;28;20033;-59
2023/01/27 06:18:09;;;;;;;41.50;17.77;;;;;;;0.33;100.00;99877.84;5039254;28;20483;-59
2023/01/27 06:20:35;;;;;;;47.30;15.85;;;;;;;0.33;100.00;99873.41;5039202;28;20029;-63
2023/01/27 06:23:00;;;;;;;44.58;14.55;;;;;;;0.40;100.00;99882.31;5040196;28;20048;-59
2023/01/27 06:25:26;;;;;;;41.53;14.90;;;;;;;0.36;100.00;99883.63;5049780;28;20036;-59
2023/01/27 06:27:54;;;;;;;49.45;17.25;;;;;;;0.40;100.00;99890.22;5037349;28;20033;-59
2023/01/27 06:30:20;;;;;;;38.70;14.43;;;;;;;0.34;100.00;99887.41;5042651;28;20060;-59
2023/01/27 06:32:45;;;;;;;50.63;19.35;;;;;;;0.33;100.00;99888.41;5043940;28;20024;-59
2023/01/27 06:35:11;;;;;;;38.72;14.68;;;;;;;0.35;100.00;99891.69;5053629;28;20207;-59
2023/01/27 06:37:36;;;;;;;36.50;13.00;;;;;;;0.38;100.00;99896.66;5042411;28;20128;-61
2023/01/27 06:40:03;;;;;;;37.80;14.75;;;;;;;0.43;100.00;99892.53;5039060;28;20029;-59
2023/01/27 06:42:29;;;;;;;37.05;14.45;;;;;;;0.45;100.00;99892.41;5052487;28;20080;-59
2023/01/27 06:44:54;;;;;;;34.22;14.15;;;;;;;0.44;100.00;99898.63;5035871;28;20025;-59
2023/01/27 06:47:20;;;;;;;36.08;13.55;;;;;;;0.39;100.00;99903.56;5041341;28;20052;-59
2023/01/27 06:49:45;;;;;;;43.42;15.40;;;;;;;0.46;100.00;99896.66;5035926;28;21405;-61
2023/01/27 06:52:11;;;;;;;40.15;15.15;;;;;;;0.52;100.00;99905.75;5066142;28;20033;-60
2023/01/27 06:54:36;;;;;;;45.05;17.27;;;;;;;0.38;100.00;99904.56;5034805;28;20018;-61
2023/01/27 06:57:02;;;;;;;41.53;15.10;;;;;;;0.38;100.00;99899.28;5039369;28;20083;-60
2023/01/27 06:59:27;;;;;;;51.35;19.08;;;;;;;0.39;100.00;99908.84;5045848;28;20102;-60
2023/01/27 07:01:53;;;;;;;44.75;17.92;;;;;;;0.33;100.00;99906.84;5048168;28;20379;-60
2023/01/27 07:04:18;;;;;;;45.35;16.30;;;;;;;0.39;100.00;99906.19;5047098;28;20028;-60
2023/01/27 07:06:44;;;;;;;37.53;15.48;;;;;;;0.39;100.00;99903.56;5037853;28;20025;-60
2023/01/27 07:09:10;;;;;;;40.03;16.08;;;;;;;0.37;100.00;99906.34;5043775;28;20454;-60
2023/01/27 07:11:35;;;;;;;39.40;15.77;;;;;;;0.42;100.00;99912.00;5040276;28;20056;-60
2023/01/27 07:14:01;;;;;;;43.17;17.80;;;;;;;0.38;100.00;99915.13;5035827;28;20021;-60
2023/01/27 07:16:27;;;;;;;43.92;16.42;;;;;;;0.50;100.00;99911.19;5042675;28;20024;-60
2023/01/27 07:18:52;;;;;;;37.53;14.43;;;;;;;0.54;100.00;99907.22;5035774;28;20550;-60
2023/01/27 07:21:18;;;;;;;39.90;14.95;;;;;;;0.57;100.00;99917.44;5040987;28;20021;-61
2023/01/27 07:23:43;;;;;;;35.80;15.38;;;;;;;0.52;100.00;99914.47;5041574;28;20033;-60
2023/01/27 07:26:08;;;;;;;38.38;14.20;;;;;;;0.45;100.00;99915.28;5045738;28;20215;-60
2023/01/27 07:28:34;;;;;;;32.78;13.77;;;;;;;0.52;100.00;99913.66;5044036;28;20029;-60
2023/01/27 07:31:01;;;;;;;37.00;14.43;;;;;;;0.49;100.00;99916.63;5043028;28;20140;-60
2023/01/27 07:33:26;;;;;;;58.92;22.40;;;;;;;0.53;100.00;99916.16;5043391;28;20380;-60
2023/01/27 07:35:52;;;;;;;63.67;19.90;;;;;;;0.56;100.00;99915.81;5042829;28;20392;-60
2023/01/27 07:38:17;;;;;;;49.47;17.38;;;;;;;0.49;100.00;99925.34;5038590;28;20040;-60
2023/01/27 07:40:42;;;;;;;94.75;24.98;;;;;;;0.52;100.00;99926.84;5045928;28;20072;-59
2023/01/27 07:43:08;;;;;;;144.40;30.35;;;;;;;0.60;100.00;99930.34;5047458;28;20037;-60
2023/01/27 07:45:33;;;;;;;121.20;27.45;;;;;;;0.55;100.00;99924.72;5043309;28;20029;-60
2023/01/27 07:48:03;;;;;;;124.72;29.20;;;;;;;0.58;100.00;99929.69;5041220;28;20029;-60
2023/01/27 07:50:28;;;;;;;70.45;22.95;;;;;;;0.58;100.00;99927.03;5049146;28;20397;-60
2023/01/27 07:52:56;;;;;;;46.92;20.50;;;;;;;0.55;100.00;99929.16;5044816;28;20464;-60
2023/01/27 07:55:22;;;;;;;41.03;16.75;;;;;;;0.60;100.00;99927.72;5034071;28;20071;-60
2023/01/27 07:57:47;;;;;;;42.00;16.67;;;;;;;0.54;100.00;99923.06;5047093;28;20029;-61
2023/01/27 08:00:14;;;;;;;40.17;15.18;;;;;;;0.61;100.00;99933.81;5049449;28;20041;-60
2023/01/27 08:02:39;;;;;;;40.53;16.67;;;;;;;0.76;100.00;99928.72;5040139;28;20171;-60
2023/01/27 08:05:06;;;;;;;41.95;17.02;;;;;;;0.71;100.00;99936.31;5049596;28;20028;-59
2023/01/27 08:07:31;;;;;;;41.75;15.80;;;;;;;0.66;100.00;99936.78;5055741;28;20105;-59
2023/01/27 08:09:57;;;;;;;38.45;16.85;;;;;;;0.78;100.00;99935.50;5045829;28;20037;-59
2023/01/27 08:12:22;;;;;;;39.95;15.57;;;;;;;0.76;100.00;99939.28;5038662;28;20041;-59
2023/01/27 08:14:47;;;;;;;39.92;15.25;;;;;;;0.73;100.00;99952.81;5051518;28;20034;-59
2023/01/27 08:17:13;;;;;;;40.22;16.30;;;;;;;0.80;100.00;99944.09;5050013;28;20025;-59
2023/01/27 08:19:38;;;;;;;38.70;15.43;;;;;;;0.78;100.00;99947.88;5044400;28;20040;-59
2023/01/27 08:22:04;;;;;;;38.97;16.48;;;;;;;0.86;100.00;99953.16;5044476;28;20076;-59
2023/01/27 08:24:29;;;;;;;46.08;17.08;;;;;;;0.84;100.00;99950.66;5039978;28;20398;-59
2023/01/27 08:26:55;;;;;;;47.13;16.83;;;;;;;0.93;100.00;99951.53;5037419;28;20087;-59
2023/01/27 08:29:20;;;;;;;47.80;17.38;;;;;;;0.83;100.00;99950.84;5045088;28;20384;-59
2023/01/27 08:31:46;;;;;;;37.97;15.73;;;;;;;0.84;100.00;99949.84;5045033;28;20048;-60
2023/01/27 08:34:11;;;;;;;38.22;14.80;;;;;;;0.93;100.00;99959.44;5042130;28;20766;-59
2023/01/27 08:36:36;;;;;;;37.35;15.15;;;;;;;0.92;100.00;99960.41;5046505;28;20086;-59
2023/01/27 08:39:02;;;;;;;42.80;16.90;;;;;;;0.96;100.00;99967.03;5054888;28;20039;-59
2023/01/27 08:41:27;;;;;;;42.60;15.38;;;;;;;0.85;100.00;99972.63;5053831;28;20110;-59
2023/01/27 08:43:54;;;;;;;44.92;17.73;;;;;;;0.99;100.00;99969.34;5071310;28;20495;-60
2023/01/27 08:46:19;;;;;;;48.28;18.55;;;;;;;1.04;100.00;99977.59;5036307;28;20035;-59
2023/01/27 08:48:45;;;;;;;53.30;18.77;;;;;;;1.00;100.00;99971.00;5039693;28;20029;-59
2023/01/27 08:51:12;;;;;;;46.28;17.25;;;;;;;1.06;100.00;99983.56;5050733;28;20024;-59
2023/01/27 08:53:37;;;;;;;48.75;17.73;;;;;;;1.12;100.00;99978.59;5044521;28;20033;-59
2023/01/27 08:56:07;;;;;;;40.75;16.40;;;;;;;1.07;100.00;99977.31;5037434;28;20032;-60
2023/01/27 08:58:33;;;;;;;38.92;14.30;;;;;;;1.03;100.00;99977.78;5041910;28;20462;-59
2023/01/27 09:01:00;;;;;;;39.00;15.18;;;;;;;1.09;100.00;99974.47;5044472;28;20021;-59
2023/01/27 09:03:26;;;;;;;38.58;16.25;;;;;;;1.18;100.00;99972.69;5037686;28;20380;-59
2023/01/27 09:05:52;;;;;;;37.20;14.95;;;;;;;1.05;100.00;99973.16;5044368;28;20315;-59
2023/01/27 09:08:17;;;;;;;37.67;14.43;;;;;;;1.11;100.00;99976.97;5043837;28;20037;-59
2023/01/27 09:10:43;;;;;;;40.63;16.42;;;;;;;1.19;100.00;99984.91;5045113;28;20029;-59
2023/01/27 09:13:09;;;;;;;37.38;15.82;;;;;;;1.13;100.00;99985.56;5038469;28;20029;-59
2023/01/27 09:15:35;;;;;;;36.03;14.32;;;;;;;1.22;100.00;99988.06;5041283;28;20328;-59
2023/01/27 09:18:01;;;;;;;39.13;14.73;;;;;;;1.25;100.00;99989.53;5051938;28;20028;-59
2023/01/27 09:20:26;;;;;;;41.25;14.98;;;;;;;1.29;100.00;99991.66;5044355;28;20037;-59
2023/01/27 09:22:54;;;;;;;39.47;16.55;;;;;;;1.38;100.00;99984.59;5037085;28;20464;-59
2023/01/27 09:25:19;;;;;;;41.42;15.93;;;;;;;1.36;100.00;99991.84;5045460;28;20079;-59
2023/01/27 09:27:45;;;;;;;35.70;15.75;;;;;;;1.45;100.00;99993.50;5050444;28;20037;-60
2023/01/27 09:30:11;;;;;;;46.72;18.20;;;;;;;1.37;100.00;100001.41;5045785;28;21340;-59
2023/01/27 09:32:36;;;;;;;43.78;15.75;;;;;;;1.33;100.00;99994.00;5041339;28;20388;-59
2023/01/27 09:35:02;;;;;;;42.08;16.75;;;;;;;1.37;100.00;99998.75;5035317;28;20095;-59
2023/01/27 09:37:27;;;;;;;60.28;20.33;;;;;;;1.32;100.00;100000.25;5040632;28;20379;-60
2023/01/27 09:39:55;;;;;;;43.55;16.73;;;;;;;1.55;100.00;100005.72;5036740;28;20126;-59
2023/01/27 09:42:37;;;;;;;46.67;17.25;;;;;;;1.48;100.00;99998.47;5006272;28;20033;-59
2023/01/27 09:45:15;;;;;;;43.35;17.45;;;;;;;1.44;100.00;100010.34;5039011;28;20044;-60
2023/01/27 09:47:59;;;;;;;45.50;16.85;;;;;;;1.45;100.00;100009.38;5039061;28;20037;-60
2023/01/27 09:50:31;;;;;;;41.40;14.93;;;;;;;1.57;100.00;100004.56;5058242;28;20424;-60
2023/01/27 09:53:24;;;;;;;46.78;16.77;;;;;;;1.43;100.00;100006.06;5039662;28;20029;-60
2023/01/27 09:56:07;;;;;;;37.10;16.33;;;;;;;1.61;100.00;100002.44;5041012;28;20470;-60
2023/01/27 09:58:46;;;;;;;35.50;13.85;;;;;;;1.62;100.00;99998.78;5038987;28;20372;-60
2023/01/27 10:01:17;;;;;;;33.00;12.98;;;;;;;1.56;100.00;99991.53;5043025;28;20039;-60
2023/01/27 10:03:43;;;;;;;36.47;12.25;;;;;;;1.51;100.00;99997.31;5041686;28;20037;-60
2023/01/27 10:06:20;;;;;;;34.17;13.10;;;;;;;1.69;100.00;100000.59;5032612;28;20551;-60
2023/01/27 10:09:15;;;;;;;29.00;13.05;;;;;;;1.73;100.00;100001.09;5035986;28;20052;-60
2023/01/27 10:11:49;;;;;;;36.53;14.77;;;;;;;1.68;100.00;100006.88;4989238;28;20091;-60
2023/01/27 10:14:37;;;;;;;31.15;12.52;;;;;;;1.71;100.00;100003.06;5043532;28;20511;-60
2023/01/27 10:17:09;;;;;;;30.38;14.73;;;;;;;1.76;100.00;100002.59;5017296;28;20065;-60
2023/01/27 10:19:58;;;;;;;27.60;11.43;;;;;;;1.67;100.00;100009.69;5046799;28;20036;-60
2023/01/27 10:22:32;;;;;;;23.02;11.35;;;;;;;1.80;100.00;100006.53;5037066;28;20038;-60
2023/01/27 10:25:35;;;;;;;28.77;12.05;;;;;;;1.79;100.00;100012.81;5040196;28;20032;-60
2023/01/27 10:28:06;;;;;;;19.60;9.20;;;;;;;1.80;100.00;100015.31;5042231;28;20380;-60
2023/01/27 10:30:33;;;;;;;25.95;10.30;;;;;;;1.81;100.00;100011.66;5027388;28;20033;-60
2023/01/27 10:33:17;;;;;;;26.80;12.18;;;;;;;1.87;100.00;100018.94;5033342;28;20350;-60
2023/01/27 10:35:54;;;;;;;23.08;10.55;;;;;;;1.92;100.00;100019.25;5041620;28;20064;-60
2023/01/27 10:38:57;;;;;;;33.28;12.98;;;;;;;1.89;100.00;100014.28;5018216;28;20028;-60
2023/01/27 10:41:27;;;;;;;48.80;17.33;;;;;;;1.85;100.00;100022.75;5045040;28;20481;-60
2023/01/27 10:44:24;;;;;;;114.60;32.83;;;;;;;1.87;100.00;100018.94;5040594;28;20043;-59
2023/01/27 10:46:58;;;;;;;27.98;10.57;;;;;;;1.86;100.00;100019.91;5031747;28;20037;-60
2023/01/27 10:49:28;;;;;;;39.55;14.90;;;;;;;2.01;100.00;100035.13;5040079;28;20402;-60
2023/01/27 10:52:01;;;;;;;30.17;10.93;;;;;;;1.92;100.00;100021.91;5041241;28;20028;-59
2023/01/27 10:54:31;;;;;;;33.80;12.45;;;;;;;1.87;100.00;100018.09;5036137;28;20104;-59
2023/01/27 10:57:05;;;;;;;27.90;11.85;;;;;;;1.81;100.00;100027.53;5031655;28;20100;-60
2023/01/27 10:59:38;;;;;;;70.85;22.80;;;;;;;1.86;100.00;100030.50;5042617;28;20049;-59
2023/01/27 11:02:27;;;;;;;31.35;13.07;;;;;;;1.84;100.00;100027.19;5042778;28;20521;-59
2023/01/27 11:04:55;;;;;;;32.10;12.20;;;;;;;1.79;100.00;100029.50;5045597;28;20032;-59
2023/01/27 11:07:21;;;;;;;37.90;13.73;;;;;;;1.79;100.00;100026.84;5024070;28;21144;-59
2023/01/27 11:09:48;;;;;;;31.95;12.48;;;;;;;1.75;100.00;100032.63;5049411;28;20378;-59
2023/01/27 11:12:14;;;;;;;34.67;13.48;;;;;;;1.67;100.00;100031.66;5049477;28;20041;-59
2023/01/27 11:14:45;;;;;;;41.35;15.68;;;;;;;1.74;100.00;100026.53;5045645;28;20099;-59
2023/01/27 11:17:16;;;;;;;34.20;13.30;;;;;;;1.85;100.00;100026.22;5044317;28;20036;-58
2023/01/27 11:19:52;;;;;;;28.55;11.55;;;;;;;1.85;100.00;100017.47;5050496;28;20060;-59
2023/01/27 11:22:22;;;;;;;32.47;12.63;;;;;;;1.78;100.00;100022.56;5044930;28;20172;-59
2023/01/27 11:25:12;;;;;;;31.30;12.20;;;;;;;1.88;100.00;100023.22;5038666;28;20033;-59
2023/01/27 11:28:00;;;;;;;31.08;11.52;;;;;;;1.99;100.00;100029.16;5045414;28;20383;-59
2023/01/27 11:30:30;;;;;;;33.85;15.45;;;;;;;1.98;100.00;100016.94;5038132;28;20540;-61
2023/01/27 11:33:03;;;;;;;42.83;15.13;;;;;;;2.21;100.00;100031.09;5026915;28;20021;-59
2023/01/27 11:35:28;;;;;;;31.05;12.90;;;;;;;2.21;100.00;100028.47;5043253;28;20093;-59
2023/01/27 11:37:54;;;;;;;31.52;11.57;;;;;;;2.15;100.00;100029.97;5039668;28;20773;-59
2023/01/27 11:40:32;;;;;;;20.88;8.68;;;;;;;2.13;100.00;100023.19;5045885;28;20032;-59
2023/01/27 11:42:58;;;;;;;27.05;10.93;;;;;;;2.31;100.00;100013.22;5035896;28;20102;-59
2023/01/27 11:45:24;;;;;;;20.48;9.07;;;;;;;2.27;100.00;100017.22;5032155;28;20028;-59
2023/01/27 11:47:51;;;;;;;25.23;9.88;;;;;;;2.39;100.00;100004.44;5032071;28;20037;-60
2023/01/27 11:50:19;;;;;;;27.73;10.02;;;;;;;2.57;100.00;100007.69;5038307;28;20492;-60
2023/01/27 11:52:46;;;;;;;17.98;8.40;;;;;;;2.63;100.00;100006.19;5035271;28;20479;-60